Time;durP1;ratioP1;P1;durP2;ratioP2;P2;SDS_P1;SDS_P2;PMS_P1;PMS_P2;Temp;Humidity;BMP_temperature;BMP_pressure;BME280_temperature;BME280_humidity;BME280_pressure;Samples;Min_cycle;Max_cycle;Signal;HPM_P1;HPM_P2
2023/07/29 00:01:39;;;;;;;4.80;1.85;;;;;;;23.36;53.02;98736.13;4498550;31;34530;-89
2023/07/29 00:04:09;;;;;;;4.60;2.15;;;;;;;23.43;52.65;98740.22;4498611;31;33485;-86
2023/07/29 00:06:36;;;;;;;4.00;2.22;;;;;;;23.35;52.90;98732.62;4471673;31;36614;-86
2023/07/29 00:09:04;;;;;;;4.90;2.22;;;;;;;23.45;52.63;98739.22;4498376;31;34942;-86
2023/07/29 00:11:33;;;;;;;8.02;2.08;;;;;;;23.43;52.62;98734.91;4498578;31;34917;-86
2023/07/29 00:14:01;;;;;;;5.37;2.10;;;;;;;23.43;52.58;98732.28;4498672;31;33194;-88
2023/07/29 00:16:29;;;;;;;4.05;1.65;;;;;;;23.38;52.44;98735.13;4498437;31;34726;-87
2023/07/29 00:18:56;;;;;;;5.07;2.40;;;;;;;23.41;52.54;98735.00;4498813;31;33699;-86
2023/07/29 00:21:24;;;;;;;3.80;1.87;;;;;;;23.45;52.28;98727.75;4498332;31;34560;-86
2023/07/29 00:23:51;;;;;;;4.40;2.58;;;;;;;23.41;52.25;98731.47;4498239;31;33789;-87
2023/07/29 00:26:20;;;;;;;4.10;2.10;;;;;;;23.31;52.45;98731.06;4498337;31;34455;-86
2023/07/29 00:28:47;;;;;;;5.80;2.20;;;;;;;23.28;52.43;98724.12;4498482;31;33884;-86
2023/07/29 00:31:15;;;;;;;4.50;1.92;;;;;;;23.31;52.51;98726.63;4484103;31;34804;-86
2023/07/29 00:33:42;;;;;;;5.10;2.42;;;;;;;23.33;52.43;98718.59;4498298;31;33458;-87
2023/07/29 00:36:10;;;;;;;5.57;2.33;;;;;;;23.22;52.89;98721.78;4498047;31;33649;-85
2023/07/29 00:38:37;;;;;;;5.72;2.20;;;;;;;23.22;52.99;98724.41;4483744;31;34158;-87
2023/07/29 00:41:05;;;;;;;4.47;2.30;;;;;;;23.23;53.11;98722.63;4484201;31;33797;-88
2023/07/29 00:43:33;;;;;;;4.10;1.87;;;;;;;23.21;53.52;98724.47;4483729;31;33251;-86
2023/07/29 00:46:02;;;;;;;5.32;2.87;;;;;;;23.21;53.83;98722.66;4484220;31;34046;-87
2023/07/29 00:48:29;;;;;;;5.40;2.47;;;;;;;23.06;54.53;98723.38;4484281;31;34566;-86
2023/07/29 00:50:57;;;;;;;4.75;2.60;;;;;;;23.03;54.77;98726.16;4483371;31;33891;-88
2023/07/29 00:53:24;;;;;;;5.47;2.40;;;;;;;22.99;54.24;98725.41;4483853;31;33448;-87
2023/07/29 00:55:52;;;;;;;4.03;1.90;;;;;;;22.90;54.21;98719.69;4484092;31;33878;-86
2023/07/29 00:58:20;;;;;;;5.68;2.17;;;;;;;23.00;53.84;98719.22;4483424;31;35021;-86
2023/07/29 01:00:47;;;;;;;4.97;2.10;;;;;;;22.97;53.80;98718.50;4483501;31;32480;-86
2023/07/29 01:03:15;;;;;;;5.35;2.10;;;;;;;22.78;54.24;98716.66;4497884;31;33276;-87
2023/07/29 01:06:13;;;;;;;4.95;2.40;;;;;;;22.95;53.74;98709.78;4483425;31;34091;-88
2023/07/29 01:09:17;;;;;;;4.75;2.12;;;;;;;22.99;53.34;98714.84;4479857;31;34162;-88
2023/07/29 01:11:59;;;;;;;4.53;2.20;;;;;;;22.89;53.11;98710.03;4496908;31;34443;-86
2023/07/29 01:14:39;;;;;;;4.47;1.83;;;;;;;22.75;53.19;98711.50;4485574;31;33568;-86
2023/07/29 01:17:09;;;;;;;5.10;2.20;;;;;;;22.77;53.32;98706.16;4485623;31;33569;-88
2023/07/29 01:20:12;;;;;;;3.85;1.98;;;;;;;22.61;53.53;98699.81;4485341;31;34874;-87
2023/07/29 01:22:39;;;;;;;4.87;2.12;;;;;;;22.85;53.04;98708.47;4485327;31;33981;-86
2023/07/29 01:25:07;;;;;;;4.25;2.08;;;;;;;22.66;53.27;98719.84;4499704;31;33915;-86
2023/07/29 01:27:35;;;;;;;4.82;2.17;;;;;;;22.73;52.91;98713.34;4485317;31;34073;-86
2023/07/29 01:30:03;;;;;;;5.55;2.20;;;;;;;22.71;53.09;98717.84;4499569;31;34999;-89
2023/07/29 01:32:38;;;;;;;5.53;2.12;;;;;;;22.74;52.67;98708.94;4485255;31;33914;-88
2023/07/29 01:35:08;;;;;;;4.43;2.17;;;;;;;22.75;52.46;98713.28;4499611;31;32971;-86
2023/07/29 01:37:37;;;;;;;4.57;1.92;;;;;;;22.70;52.68;98717.91;4499857;31;33896;-87
2023/07/29 01:40:06;;;;;;;5.05;2.25;;;;;;;22.72;52.79;98713.41;4485675;31;35035;-86
2023/07/29 01:42:34;;;;;;;5.53;2.78;;;;;;;22.77;52.62;98716.72;4499782;31;34043;-87
2023/07/29 01:45:02;;;;;;;5.07;2.50;;;;;;;22.75;52.53;98716.78;4485403;31;34396;-86
2023/07/29 01:47:30;;;;;;;4.87;2.30;;;;;;;22.81;52.25;98716.53;4499939;31;34793;-88
2023/07/29 01:49:58;;;;;;;4.97;2.15;;;;;;;22.58;52.98;98717.53;4484900;31;34101;-88
2023/07/29 01:52:25;;;;;;;5.22;2.40;;;;;;;22.57;53.05;98720.22;4499485;31;34814;-86
2023/07/29 01:54:53;;;;;;;4.80;2.05;;;;;;;22.64;52.91;98726.94;4499722;31;33759;-88
2023/07/29 01:57:20;;;;;;;5.03;2.20;;;;;;;22.64;52.90;98720.81;4499452;31;34766;-86
2023/07/29 01:59:48;;;;;;;4.57;2.25;;;;;;;22.49;53.32;98717.03;4500006;31;33896;-88
2023/07/29 02:02:16;;;;;;;4.28;2.10;;;;;;;22.40;53.55;98715.66;4499630;31;33202;-86
2023/07/29 02:04:45;;;;;;;4.10;1.77;;;;;;;22.47;53.39;98718.91;4484780;31;33470;-88
2023/07/29 02:07:12;;;;;;;5.22;2.10;;;;;;;22.42;53.36;98718.22;4499376;31;33985;-86
2023/07/29 02:09:40;;;;;;;4.00;2.00;;;;;;;22.54;53.14;98715.06;4499596;31;33776;-87
2023/07/29 02:12:08;;;;;;;5.60;2.05;;;;;;;22.41;53.47;98704.16;4499310;31;34671;-88
2023/07/29 02:14:37;;;;;;;5.60;2.42;;;;;;;22.43;53.65;98704.97;4499449;31;33480;-87
2023/07/29 02:17:04;;;;;;;4.70;2.33;;;;;;;22.41;53.74;98714.72;4499451;31;33574;-85
2023/07/29 02:19:32;;;;;;;8.65;2.30;;;;;;;22.39;53.76;98705.16;4484368;31;33681;-86
2023/07/29 02:22:00;;;;;;;4.50;2.20;;;;;;;22.44;53.65;98709.31;4499328;31;33942;-88
2023/07/29 02:24:28;;;;;;;5.20;2.33;;;;;;;22.31;54.14;98709.00;4499249;31;34386;-86
2023/07/29 02:26:55;;;;;;;4.97;2.40;;;;;;;22.15;54.78;98715.81;4499037;31;34735;-86
2023/07/29 02:29:24;;;;;;;5.60;2.35;;;;;;;22.23;54.53;98720.78;4499354;31;33868;-87
2023/07/29 02:31:52;;;;;;;4.68;2.55;;;;;;;22.18;54.57;98723.62;4499538;31;33599;-86
2023/07/29 02:34:20;;;;;;;4.07;2.10;;;;;;;22.21;54.50;98715.59;4499446;31;33610;-86
2023/07/29 02:36:47;;;;;;;6.43;2.53;;;;;;;22.14;54.97;98715.91;4499342;31;33927;-86
2023/07/29 02:39:15;;;;;;;6.18;2.60;;;;;;;22.14;55.09;98715.91;4484961;31;33730;-87
2023/07/29 02:41:43;;;;;;;4.43;2.25;;;;;;;22.14;54.91;98714.13;4499044;31;34013;-87
2023/07/29 02:44:10;;;;;;;7.10;2.72;;;;;;;22.15;55.09;98722.91;4484884;31;34367;-86
2023/07/29 02:46:38;;;;;;;5.65;2.60;;;;;;;22.10;55.29;98721.28;4484924;31;34825;-85
2023/07/29 02:49:06;;;;;;;5.15;2.58;;;;;;;22.14;55.34;98726.47;4499035;31;34815;-85
2023/07/29 02:51:33;;;;;;;6.00;2.28;;;;;;;22.08;55.48;98724.88;4499305;31;33691;-88
2023/07/29 02:54:01;;;;;;;5.53;2.53;;;;;;;22.01;55.60;98723.41;4499256;31;33154;-86
2023/07/29 02:56:30;;;;;;;4.57;2.25;;;;;;;22.07;55.48;98725.81;4499144;31;34431;-85
2023/07/29 02:58:58;;;;;;;4.43;2.30;;;;;;;22.08;55.51;98717.81;4484724;31;34358;-87
2023/07/29 03:01:26;;;;;;;4.70;2.55;;;;;;;22.06;55.45;98724.97;4498803;31;33987;-87
2023/07/29 03:03:54;;;;;;;5.85;2.30;;;;;;;22.08;55.52;98727.53;4499153;31;34219;-86
2023/07/29 03:06:21;;;;;;;4.70;2.30;;;;;;;22.02;55.60;98733.06;4498760;31;34006;-86
2023/07/29 03:08:49;;;;;;;6.05;2.20;;;;;;;21.99;55.82;98733.19;4484607;31;33998;-86
2023/07/29 03:11:16;;;;;;;4.60;2.53;;;;;;;21.92;56.18;98726.44;4499062;31;33066;-88
2023/07/29 03:13:44;;;;;;;5.15;2.25;;;;;;;22.02;56.11;98735.72;4484985;31;34140;-87
2023/07/29 03:16:14;;;;;;;4.22;2.50;;;;;;;21.84;56.54;98739.94;4498654;31;34041;-88
2023/07/29 03:18:43;;;;;;;4.87;2.28;;;;;;;21.96;56.14;98739.44;4499162;31;34571;-86
2023/07/29 03:21:10;;;;;;;5.43;2.15;;;;;;;21.81;56.65;98738.28;4471452;31;32074;-86
2023/07/29 03:23:38;;;;;;;4.90;2.35;;;;;;;21.67;57.13;98734.47;4484563;31;33867;-85
2023/07/29 03:26:10;;;;;;;5.65;2.78;;;;;;;21.69;57.17;98730.84;4485025;31;33267;-85
2023/07/29 03:28:42;;;;;;;6.68;2.80;;;;;;;21.76;56.92;98734.97;4485250;31;34130;-85
2023/07/29 03:31:10;;;;;;;5.25;2.58;;;;;;;21.77;56.81;98734.03;4483412;31;33926;-85
2023/07/29 03:33:38;;;;;;;5.10;2.40;;;;;;;21.72;56.91;98736.00;4498954;31;33640;-88
2023/07/29 03:36:06;;;;;;;4.00;1.92;;;;;;;21.75;56.96;98735.91;4498911;31;33727;-85
2023/07/29 03:38:35;;;;;;;4.07;1.90;;;;;;;21.79;56.87;98726.94;4498899;31;33995;-88
2023/07/29 03:41:03;;;;;;;6.25;2.78;;;;;;;21.73;56.94;98721.91;4498956;31;34043;-85
2023/07/29 03:43:30;;;;;;;6.18;3.08;;;;;;;21.76;56.94;98720.91;4484353;31;32660;-85
2023/07/29 03:45:58;;;;;;;5.18;2.20;;;;;;;21.83;56.73;98733.81;4498599;31;33465;-86
2023/07/29 03:48:26;;;;;;;5.25;2.78;;;;;;;21.76;57.10;98732.34;4498854;31;34905;-87
2023/07/29 03:50:54;;;;;;;6.72;3.05;;;;;;;21.62;57.55;98739.91;4498485;31;33541;-85
2023/07/29 03:53:22;;;;;;;6.18;2.60;;;;;;;21.72;57.40;98741.28;4499057;31;34112;-87
2023/07/29 03:55:50;;;;;;;5.05;2.50;;;;;;;21.77;57.25;98738.47;4498703;31;34883;-88
2023/07/29 03:58:17;;;;;;;5.12;2.55;;;;;;;21.80;57.24;98739.22;4484225;31;34748;-86
2023/07/29 04:00:45;;;;;;;6.35;2.80;;;;;;;21.87;57.06;98740.69;4471084;31;33567;-86
2023/07/29 04:03:13;;;;;;;5.72;2.55;;;;;;;21.94;57.01;98737.81;4498942;31;33383;-85
2023/07/29 04:05:44;;;;;;;5.35;2.50;;;;;;;21.92;57.18;98735.22;4498682;31;34860;-85
2023/07/29 04:08:11;;;;;;;5.57;2.80;;;;;;;21.91;57.50;98730.88;4498627;31;34155;-88
2023/07/29 04:10:39;;;;;;;5.03;2.40;;;;;;;22.06;57.07;98732.03;4484688;31;33905;-85
2023/07/29 04:13:07;;;;;;;5.25;2.85;;;;;;;21.96;57.97;98735.94;4498737;31;34306;-85
2023/07/29 04:15:34;;;;;;;4.55;2.37;;;;;;;22.11;57.74;98737.97;4498411;31;33783;-86
2023/07/29 04:18:02;;;;;;;6.10;2.30;;;;;;;22.17;57.54;98742.19;4484418;31;33769;-88
2023/07/29 04:20:29;;;;;;;5.90;2.70;;;;;;;22.37;57.54;98749.28;4498636;31;34903;-85
2023/07/29 04:22:57;;;;;;;5.75;2.45;;;;;;;22.52;57.64;98745.97;4498496;31;33582;-87
2023/07/29 04:25:25;;;;;;;7.30;3.00;;;;;;;22.46;57.87;98746.22;4471599;31;33721;-88
2023/07/29 04:27:52;;;;;;;5.75;2.83;;;;;;;22.10;58.50;98741.53;4498309;31;34048;-87
2023/07/29 04:30:20;;;;;;;4.20;2.42;;;;;;;22.17;57.56;98740.41;4484119;31;34105;-84
2023/07/29 04:32:48;;;;;;;6.35;3.00;;;;;;;22.53;55.58;98740.62;4498601;31;33104;-87
2023/07/29 04:35:16;;;;;;;4.47;2.30;;;;;;;22.77;54.83;98741.38;4483772;31;32867;-85
2023/07/29 04:37:44;;;;;;;5.25;2.65;;;;;;;22.93;53.90;98728.34;4498376;31;34131;-88
2023/07/29 04:40:11;;;;;;;5.95;2.95;;;;;;;22.92;54.69;98734.59;4498557;31;33767;-86
2023/07/29 04:42:39;;;;;;;5.87;2.55;;;;;;;23.66;52.72;98733.84;4498116;31;33098;-85
2023/07/29 04:45:07;;;;;;;5.35;2.70;;;;;;;23.91;52.52;98736.22;4498200;31;35223;-87
2023/07/29 04:47:35;;;;;;;4.93;2.30;;;;;;;24.08;52.16;98735.37;4498085;31;35010;-85
2023/07/29 04:50:03;;;;;;;5.78;2.70;;;;;;;24.41;51.01;98738.19;4483832;31;33217;-85
2023/07/29 04:52:30;;;;;;;5.95;2.62;;;;;;;24.88;50.47;98729.56;4497938;31;33409;-87
2023/07/29 04:54:58;;;;;;;4.85;2.47;;;;;;;25.27;49.43;98729.28;4498306;31;33579;-85
2023/07/29 04:57:25;;;;;;;5.93;2.70;;;;;;;25.68;49.20;98721.69;4497923;31;34067;-85
2023/07/29 04:59:55;;;;;;;6.05;2.45;;;;;;;26.33;47.75;98725.97;4498201;31;34575;-86
2023/07/29 05:02:22;;;;;;;4.90;2.40;;;;;;;27.07;46.55;98719.78;4498143;31;33050;-86
2023/07/29 05:04:50;;;;;;;4.60;2.22;;;;;;;27.22;46.77;98725.97;4483164;31;33732;-85
2023/07/29 05:07:18;;;;;;;5.07;2.30;;;;;;;27.87;44.94;98724.47;4497835;31;33605;-85
2023/07/29 05:09:47;;;;;;;4.40;2.05;;;;;;;28.12;44.52;98729.03;4470396;31;32386;-85
2023/07/29 05:12:14;;;;;;;4.80;2.40;;;;;;;27.96;44.54;98747.00;4497569;31;34369;-86
2023/07/29 05:14:42;;;;;;;5.32;2.10;;;;;;;27.16;43.66;98737.84;4497670;31;34037;-88
2023/07/29 05:17:11;;;;;;;7.22;2.40;;;;;;;27.13;44.27;98743.37;4483393;31;34903;-88
2023/07/29 05:19:39;;;;;;;5.72;2.80;;;;;;;26.52;45.02;98752.34;4497635;31;34656;-85
2023/07/29 05:22:07;;;;;;;5.10;2.47;;;;;;;26.66;45.58;98755.91;4497911;31;33543;-87
2023/07/29 05:24:34;;;;;;;4.57;2.28;;;;;;;26.89;46.00;98756.34;4497709;31;33963;-86
2023/07/29 05:27:02;;;;;;;5.18;2.33;;;;;;;26.62;46.10;98753.53;4497377;31;34069;-88
2023/07/29 05:29:29;;;;;;;6.05;2.60;;;;;;;26.32;46.20;98740.22;4483291;31;33565;-88
2023/07/29 05:31:57;;;;;;;3.90;1.92;;;;;;;26.24;46.43;98743.31;4497706;31;33529;-85
2023/07/29 05:34:25;;;;;;;5.10;2.55;;;;;;;27.09;46.63;98760.47;4497726;31;33883;-87
2023/07/29 05:36:52;;;;;;;4.53;2.22;;;;;;;26.95;45.48;98766.63;4497554;31;34274;-87
2023/07/29 05:39:20;;;;;;;4.57;2.15;;;;;;;26.88;46.33;98770.59;4483105;31;33921;-86
2023/07/29 05:41:47;;;;;;;4.32;2.20;;;;;;;26.56;47.03;98776.03;4497428;31;34244;-85
2023/07/29 05:44:14;;;;;;;5.57;2.92;;;;;;;26.56;47.14;98781.34;4497637;31;33908;-85
2023/07/29 05:46:42;;;;;;;5.72;2.33;;;;;;;26.00;48.50;98776.63;4497095;31;34787;-85
2023/07/29 05:49:10;;;;;;;6.30;2.62;;;;;;;26.18;48.04;98787.06;4497127;31;33849;-85
2023/07/29 05:51:37;;;;;;;5.37;2.35;;;;;;;25.89;48.95;98787.84;4497301;31;33375;-88
2023/07/29 05:54:05;;;;;;;5.37;2.20;;;;;;;25.85;49.28;98781.84;4498678;31;33946;-87
2023/07/29 05:56:33;;;;;;;4.30;2.05;;;;;;;25.95;50.32;98787.50;4499392;31;34186;-87
2023/07/29 05:59:01;;;;;;;4.78;2.28;;;;;;;25.93;48.91;98792.03;4499574;31;33907;-85
2023/07/29 06:01:29;;;;;;;4.50;2.03;;;;;;;25.99;48.62;98791.69;4499513;31;34503;-86
2023/07/29 06:03:56;;;;;;;4.70;2.15;;;;;;;26.32;47.97;98798.69;4499665;31;34438;-88
2023/07/29 06:06:24;;;;;;;5.85;2.33;;;;;;;25.83;48.69;98796.13;4499612;31;34690;-86
2023/07/29 06:08:51;;;;;;;4.60;2.37;;;;;;;25.60;49.09;98805.31;4499558;31;33560;-85
2023/07/29 06:11:19;;;;;;;5.28;2.25;;;;;;;25.67;49.20;98802.25;4499487;31;34391;-86
2023/07/29 06:13:48;;;;;;;4.78;2.35;;;;;;;25.54;50.43;98803.87;4485199;31;33593;-86
2023/07/29 06:16:16;;;;;;;5.05;2.10;;;;;;;25.35;50.30;98816.44;4485124;31;34231;-89
2023/07/29 06:18:44;;;;;;;5.87;2.50;;;;;;;25.42;50.45;98813.38;4499549;31;34825;-85
2023/07/29 06:21:16;;;;;;;4.80;2.10;;;;;;;25.42;50.31;98810.72;4499503;31;33851;-85
2023/07/29 06:23:44;;;;;;;4.78;2.28;;;;;;;25.96;49.83;98808.66;4485516;31;34018;-86
2023/07/29 06:26:11;;;;;;;3.92;2.05;;;;;;;26.08;48.88;98806.25;4499237;31;34110;-85
2023/07/29 06:28:39;;;;;;;5.00;2.62;;;;;;;26.24;49.32;98809.75;4499355;31;33524;-86
2023/07/29 06:31:06;;;;;;;5.47;2.45;;;;;;;25.75;50.35;98814.25;4499288;31;34209;-88
2023/07/29 06:33:34;;;;;;;6.78;2.45;;;;;;;25.91;49.24;98812.50;4499458;31;33563;-85
2023/07/29 06:36:02;;;;;;;6.53;2.33;;;;;;;25.96;49.36;98819.28;4485311;31;34020;-89
2023/07/29 06:38:29;;;;;;;5.25;2.15;;;;;;;25.44;50.70;98837.16;4499200;31;34021;-86
2023/07/29 06:40:57;;;;;;;7.60;2.62;;;;;;;25.66;50.60;98823.59;4499109;31;33899;-87
2023/07/29 06:43:24;;;;;;;4.68;2.47;;;;;;;25.91;49.72;98820.47;4485259;31;33940;-88
2023/07/29 06:45:52;;;;;;;4.57;2.25;;;;;;;25.62;50.06;98819.37;4499428;31;33651;-87
2023/07/29 06:48:20;;;;;;;4.60;2.10;;;;;;;25.53;50.53;98817.22;4499309;31;34097;-90
2023/07/29 06:50:47;;;;;;;7.12;2.25;;;;;;;25.78;48.98;98816.75;4499080;31;34479;-88
2023/07/29 06:53:15;;;;;;;4.75;2.12;;;;;;;25.48;50.46;98822.78;4499064;31;33849;-86
2023/07/29 06:55:43;;;;;;;5.90;2.05;;;;;;;26.33;47.66;98816.31;4499128;31;34256;-88
2023/07/29 06:58:11;;;;;;;4.57;2.42;;;;;;;26.74;47.29;98810.44;4499145;31;33808;-87
2023/07/29 07:00:39;;;;;;;4.25;1.98;;;;;;;27.07;45.84;98812.91;4499120;31;34555;-87
2023/07/29 07:03:06;;;;;;;3.85;1.98;;;;;;;27.22;46.27;98813.81;4499339;31;33093;-87
2023/07/29 07:05:34;;;;;;;3.90;2.05;;;;;;;27.53;44.76;98805.63;4498196;31;33368;-87
2023/07/29 07:08:02;;;;;;;4.40;2.15;;;;;;;27.55;44.95;98802.88;4498755;31;33770;-89
2023/07/29 07:10:29;;;;;;;4.35;2.20;;;;;;;27.79;44.45;98813.81;4499152;31;33587;-88
2023/07/29 07:12:56;;;;;;;5.97;2.50;;;;;;;27.83;45.07;98807.34;4499029;31;33594;-87
2023/07/29 07:15:24;;;;;;;4.12;2.28;;;;;;;27.38;45.50;98807.44;4498957;31;33652;-90
2023/07/29 07:17:52;;;;;;;5.75;2.58;;;;;;;27.38;45.26;98811.91;4499481;31;32966;-89
2023/07/29 07:20:19;;;;;;;4.50;2.17;;;;;;;27.33;45.49;98808.69;4498958;31;33379;-87
2023/07/29 07:22:47;;;;;;;5.22;2.50;;;;;;;27.31;45.88;98810.56;4498865;31;34781;-87
2023/07/29 07:25:14;;;;;;;5.80;2.42;;;;;;;27.23;46.76;98816.38;4499244;31;34570;-87
2023/07/29 07:27:42;;;;;;;5.32;2.35;;;;;;;27.95;45.29;98809.22;4498950;31;33781;-87
2023/07/29 07:30:10;;;;;;;5.78;2.92;;;;;;;27.67;45.79;98811.91;4499113;31;33139;-88
2023/07/29 07:32:37;;;;;;;5.50;2.08;;;;;;;28.06;44.50;98804.06;4498888;31;33947;-88
2023/07/29 07:35:05;;;;;;;4.30;2.25;;;;;;;28.08;44.18;98811.97;4498771;31;34268;-87
2023/07/29 07:37:33;;;;;;;5.75;2.78;;;;;;;28.16;44.61;98812.31;4484119;31;33945;-87
2023/07/29 07:40:00;;;;;;;4.95;1.90;;;;;;;28.01;44.17;98803.50;4498838;31;33758;-87
2023/07/29 07:42:28;;;;;;;5.45;2.22;;;;;;;28.31;43.33;98805.13;4498828;31;34419;-87
2023/07/29 07:44:56;;;;;;;4.45;1.90;;;;;;;28.20;43.28;98805.84;4498827;31;34211;-86
2023/07/29 07:47:23;;;;;;;6.15;2.20;;;;;;;28.21;43.62;98801.34;4498870;31;33409;-87
2023/07/29 07:49:51;;;;;;;4.57;2.12;;;;;;;28.00;43.79;98804.47;4484170;31;33498;-89
2023/07/29 07:52:18;;;;;;;4.35;2.00;;;;;;;27.94;43.50;98804.84;4498481;31;33995;-86
2023/07/29 07:54:51;;;;;;;5.45;2.15;;;;;;;28.21;43.73;98804.87;4498834;31;33950;-87
2023/07/29 07:57:22;;;;;;;4.45;1.98;;;;;;;27.98;44.43;98798.38;4484239;31;33908;-87
2023/07/29 07:59:52;;;;;;;4.95;2.55;;;;;;;27.61;44.59;98798.00;4484308;31;31677;-87
2023/07/29 08:02:20;;;;;;;5.65;2.25;;;;;;;27.50;46.45;98805.81;4498773;31;34763;-87
2023/07/29 08:04:48;;;;;;;5.37;2.00;;;;;;;27.81;44.63;98791.47;4498443;31;34257;-87
2023/07/29 08:07:15;;;;;;;6.18;2.00;;;;;;;28.00;44.18;98796.47;4484365;31;33894;-89
2023/07/29 08:09:43;;;;;;;4.18;1.77;;;;;;;28.13;44.54;98793.88;4498550;31;33652;-86
2023/07/29 08:12:10;;;;;;;5.03;2.30;;;;;;;28.01;44.61;98789.34;4498508;31;33975;-87
2023/07/29 08:14:38;;;;;;;4.72;2.40;;;;;;;28.17;44.35;98789.19;4498550;31;33921;-87
2023/07/29 08:17:06;;;;;;;5.68;2.00;;;;;;;28.19;43.82;98784.62;4471136;31;34087;-87
2023/07/29 08:19:35;;;;;;;4.25;2.08;;;;;;;28.65;43.82;98785.12;4498452;31;33303;-87
2023/07/29 08:22:02;;;;;;;3.28;1.80;;;;;;;28.42;43.22;98788.47;4498304;31;34783;-86
2023/07/29 08:24:30;;;;;;;5.60;1.90;;;;;;;28.36;44.52;98785.19;4483949;31;32739;-87
2023/07/29 08:26:58;;;;;;;4.22;1.87;;;;;;;28.60;42.91;98781.87;4498362;31;33893;-87
2023/07/29 08:29:25;;;;;;;3.75;1.67;;;;;;;28.50;42.67;98787.00;4498243;31;33766;-89
2023/07/29 08:31:53;;;;;;;3.30;1.42;;;;;;;28.46;43.89;98787.31;4483952;31;33063;-89
2023/07/29 08:34:20;;;;;;;3.42;1.70;;;;;;;28.84;41.23;98785.56;4498258;31;33402;-87
2023/07/29 08:36:48;;;;;;;3.58;1.55;;;;;;;28.98;39.45;98776.66;4498421;31;34060;-87
2023/07/29 08:39:16;;;;;;;2.78;1.40;;;;;;;29.01;40.46;98780.91;4498531;31;33457;-85
2023/07/29 08:41:56;;;;;;;3.30;1.40;;;;;;;29.25;39.85;98779.22;4483890;31;33703;-87
2023/07/29 08:44:26;;;;;;;4.07;1.83;;;;;;;29.54;39.31;98785.16;4483835;31;34984;-87
2023/07/29 08:46:55;;;;;;;3.65;1.52;;;;;;;29.69;39.50;98772.53;4497993;31;33713;-87
2023/07/29 08:49:23;;;;;;;3.45;1.30;;;;;;;29.84;39.80;98765.25;4497967;31;33305;-86
2023/07/29 08:51:53;;;;;;;2.83;1.30;;;;;;;29.57;39.38;98773.41;4480913;32;33454;-85
2023/07/29 08:54:21;;;;;;;2.70;1.12;;;;;;;29.43;37.84;98771.69;4482521;32;33406;-87
2023/07/29 08:56:49;;;;;;;4.10;1.00;;;;;;;29.39;38.39;98772.03;4482273;32;34469;-86
2023/07/29 08:59:17;;;;;;;2.87;1.15;;;;;;;29.75;37.56;98763.25;4480892;32;33095;-88
2023/07/29 09:01:45;;;;;;;2.95;0.95;;;;;;;29.77;36.95;98763.97;4481075;32;33503;-88
2023/07/29 09:04:12;;;;;;;4.00;1.27;;;;;;;29.15;37.71;98774.63;4482065;32;34912;-87
2023/07/29 09:06:43;;;;;;;3.33;1.33;;;;;;;29.42;37.83;98770.00;4482202;32;33694;-87
2023/07/29 09:09:10;;;;;;;3.10;1.33;;;;;;;29.53;38.05;98766.56;4482165;32;34180;-86
2023/07/29 09:11:38;;;;;;;3.75;1.85;;;;;;;29.17;38.37;98767.34;4480913;32;34856;-88
2023/07/29 09:14:05;;;;;;;3.42;1.48;;;;;;;29.18;38.38;98767.25;4482010;32;34161;-87
2023/07/29 09:16:34;;;;;;;2.97;1.33;;;;;;;29.02;38.34;98766.63;4480771;32;35405;-87
2023/07/29 09:19:03;;;;;;;4.03;1.52;;;;;;;29.42;38.77;98763.81;4480663;32;33570;-88
2023/07/29 09:21:31;;;;;;;4.47;1.30;;;;;;;29.12;37.81;98764.16;4480503;32;34566;-87
2023/07/29 09:24:04;;;;;;;3.72;1.37;;;;;;;29.04;39.17;98765.53;4481841;32;34143;-86
2023/07/29 09:26:31;;;;;;;3.83;1.45;;;;;;;29.43;39.22;98758.34;4480599;32;34431;-88
2023/07/29 09:28:59;;;;;;;4.45;1.50;;;;;;;29.66;38.33;98743.37;4483055;32;33103;-89
2023/07/29 09:31:28;;;;;;;3.60;1.60;;;;;;;29.23;38.40;98753.56;4482808;32;33901;-90
2023/07/29 09:34:01;;;;;;;2.35;1.25;;;;;;;29.28;38.51;98752.31;4482520;32;33640;-88
2023/07/29 09:36:31;;;;;;;4.25;1.70;;;;;;;29.57;37.93;98741.34;4482642;32;33170;-90
2023/07/29 09:38:59;;;;;;;4.15;1.40;;;;;;;29.63;38.32;98745.44;4483011;32;34191;-88
2023/07/29 09:41:27;;;;;;;2.87;1.30;;;;;;;29.47;37.30;98743.84;4483908;32;33641;-90
2023/07/29 09:44:00;;;;;;;4.68;1.60;;;;;;;29.68;36.86;98740.59;4484074;32;33942;-89
2023/07/29 09:46:34;;;;;;;5.10;1.75;;;;;;;29.40;39.12;98739.91;4482907;32;32528;-92
2023/07/29 09:49:04;;;;;;;3.87;1.65;;;;;;;29.13;38.62;98736.50;4469526;32;32642;-91
2023/07/29 09:51:31;;;;;;;4.37;1.40;;;;;;;29.29;38.93;98737.13;4465473;32;33088;-90
2023/07/29 09:54:02;;;;;;;3.75;1.30;;;;;;;29.81;39.19;98744.97;4469755;32;34205;-92
2023/07/29 09:56:30;;;;;;;3.47;1.50;;;;;;;29.47;38.20;98733.16;4456948;32;32979;-89
2023/07/29 09:58:58;;;;;;;3.58;1.40;;;;;;;29.85;36.71;98732.19;4483880;32;33359;-91
2023/07/29 10:01:25;;;;;;;6.82;1.77;;;;;;;29.93;37.02;98737.84;4483906;32;33895;-89
2023/07/29 10:03:56;;;;;;;2.92;1.10;;;;;;;29.75;37.48;98726.69;4482618;32;33920;-90
2023/07/29 10:06:24;;;;;;;4.78;1.40;;;;;;;29.19;37.85;98728.91;4469797;32;34005;-90
2023/07/29 10:08:55;;;;;;;3.47;1.58;;;;;;;28.99;38.62;98727.66;4469506;32;34121;-92
2023/07/29 10:11:24;;;;;;;5.93;1.60;;;;;;;29.30;38.59;98722.81;4469957;32;32552;-92
2023/07/29 10:13:53;;;;;;;4.37;1.42;;;;;;;29.52;37.96;98725.66;4469807;32;33635;-90
2023/07/29 10:16:41;;;;;;;4.97;1.40;;;;;;;29.56;38.59;98719.13;4482983;32;34639;-92
2023/07/29 10:19:09;;;;;;;3.10;1.52;;;;;;;29.90;37.76;98716.69;4469861;32;32797;-91
2023/07/29 10:21:38;;;;;;;2.72;1.20;;;;;;;29.87;36.03;98716.91;4469584;32;33142;-91
2023/07/29 10:24:09;;;;;;;4.80;1.45;;;;;;;30.11;37.62;98722.25;4482460;32;33751;-91
2023/07/29 10:26:39;;;;;;;2.97;1.30;;;;;;;30.50;36.36;98721.13;4469551;32;34266;-92
2023/07/29 10:29:10;;;;;;;2.97;1.30;;;;;;;30.13;36.76;98722.16;4469803;32;33908;-91
2023/07/29 10:31:40;;;;;;;3.28;1.42;;;;;;;30.47;35.63;98721.34;4482313;32;33531;-92
2023/07/29 10:34:08;;;;;;;2.78;1.45;;;;;;;30.64;35.62;98716.50;4482246;32;34788;-91
2023/07/29 10:36:36;;;;;;;3.45;1.30;;;;;;;31.08;34.17;98709.56;4482425;32;34051;-91
2023/07/29 10:39:04;;;;;;;3.87;1.58;;;;;;;30.80;35.14;98706.37;4469558;32;32988;-91
2023/07/29 10:42:00;;;;;;;3.20;1.48;;;;;;;30.90;35.59;98711.84;4443710;32;33904;-91
2023/07/29 10:44:43;;;;;;;3.22;1.35;;;;;;;31.10;35.63;98712.97;4469719;32;34134;-91
2023/07/29 10:47:16;;;;;;;4.10;1.50;;;;;;;30.88;35.12;98711.13;4468991;32;33785;-91
2023/07/29 10:49:45;;;;;;;4.10;1.37;;;;;;;30.27;35.78;98714.00;4469082;32;31905;-92
2023/07/29 10:52:17;;;;;;;5.07;1.45;;;;;;;30.47;37.14;98707.97;4478016;32;33591;-92
2023/07/29 10:54:46;;;;;;;2.90;1.40;;;;;;;30.46;37.15;98711.63;4482203;32;34788;-91
2023/07/29 10:57:37;;;;;;;3.00;1.30;;;;;;;30.42;35.67;98712.84;4481792;32;34553;-93
2023/07/29 11:00:05;;;;;;;2.83;1.20;;;;;;;29.99;35.85;98712.47;4469162;32;32097;-91
2023/07/29 11:02:35;;;;;;;3.20;1.10;;;;;;;29.65;35.85;98706.09;4481998;32;33803;-92
2023/07/29 11:05:18;;;;;;;3.33;1.20;;;;;;;30.13;35.22;98711.47;4482032;32;34864;-91
2023/07/29 11:07:47;;;;;;;2.83;1.27;;;;;;;30.13;36.48;98709.62;4469244;32;33404;-91
2023/07/29 11:10:15;;;;;;;2.35;1.00;;;;;;;30.42;36.90;98709.28;4469114;32;32606;-91
2023/07/29 11:12:43;;;;;;;4.93;1.30;;;;;;;30.90;34.89;98707.34;4482137;32;33786;-92
2023/07/29 11:15:11;;;;;;;4.25;1.27;;;;;;;30.69;35.39;98706.34;4482935;32;33644;-92
2023/07/29 11:17:43;;;;;;;3.35;1.20;;;;;;;30.77;35.33;98712.81;4468972;32;32486;-93
2023/07/29 11:20:12;;;;;;;2.37;1.00;;;;;;;30.87;36.40;98702.22;4482063;32;33396;-92
2023/07/29 11:22:40;;;;;;;3.83;1.05;;;;;;;30.83;35.54;98702.59;4468728;32;33507;-91
2023/07/29 11:25:10;;;;;;;3.50;1.40;;;;;;;31.34;35.62;98702.19;4481915;32;33823;-92
2023/07/29 11:27:38;;;;;;;3.75;1.33;;;;;;;31.09;35.39;98700.56;4481980;32;33627;-91
2023/07/29 11:30:11;;;;;;;3.78;1.20;;;;;;;31.48;35.03;98696.53;4482040;32;33620;-92
2023/07/29 11:32:41;;;;;;;3.08;1.30;;;;;;;31.54;33.99;98705.91;4483278;32;34660;-92
2023/07/29 11:35:14;;;;;;;4.82;1.95;;;;;;;31.67;32.96;98706.59;4469025;32;32814;-92
2023/07/29 11:37:47;;;;;;;3.22;1.27;;;;;;;31.75;33.26;98698.81;4482012;32;34429;-91
2023/07/29 11:40:16;;;;;;;2.50;1.20;;;;;;;31.49;33.08;98704.47;4483234;32;33337;-92
2023/07/29 11:42:52;;;;;;;3.12;1.27;;;;;;;31.13;33.52;98691.31;4481831;32;34680;-93